Hounslow, United Kingdom
Current Conditions -  °F | °C
As of 1:50 PM on Monday 24 Nov 2014 (Local Time) from EGLL Reporting Station
Clear Clear  
Wind Chill: 44°   Ceiling: Unl
Heat Index: 46°   Visibility: 6mi
Dew Point: 39°   Wind: 5mph
Humidity: 76%   Direction: 350°N
Pressure: 30.33"   Gusts: NA
Location:  51.47°N, 0.36°W
Report Text: EGLL 241350Z 35004KT 310V030 CAVOK 08/04 Q1027 NOSIG
Loading
Personal Weather Stations






























Interactive Weather Map New forecast layout! Learn more

10-Day Weather Forecast

Advertisements
Track Severe Weather on mobile